Time;durP1;ratioP1;P1;durP2;ratioP2;P2;SDS_P1;SDS_P2;PMS_P1;PMS_P2;Temp;Humidity;BMP_temperature;BMP_pressure;BME280_temperature;BME280_humidity;BME280_pressure;Samples;Min_cycle;Max_cycle;Signal;HPM_P1;HPM_P2
2023/10/10 00:01:38;;;;;;;;;;;;;;;;;;6197584;28;20022;-82
2023/10/10 00:04:38;;;;;;;3.60;1.67;;;;;;;;;;6196395;28;20290;-82
2023/10/10 00:07:40;;;;;;;7.17;1.70;;;;;;;;;;6176705;28;20027;-82
2023/10/10 00:10:50;;;;;;;3.97;1.63;;;;;;;;;;6191098;28;20095;-82
2023/10/10 00:13:58;;;;;;;2.50;1.35;;;;;;;;;;6194847;28;20073;-82
2023/10/10 00:16:59;;;;;;;3.78;1.35;;;;;;;;;;6193284;28;20022;-82
2023/10/10 00:20:41;;;;;;;2.55;1.40;;;;;;;;;;6195641;28;20030;-82
2023/10/10 00:23:33;;;;;;;3.15;1.45;;;;;;;;;;6198898;28;20101;-81
2023/10/10 00:26:34;;;;;;;4.32;1.75;;;;;;;;;;6200636;28;20503;-82
2023/10/10 00:29:34;;;;;;;5.07;1.58;;;;;;;;;;6196426;28;20028;-82
2023/10/10 00:32:35;;;;;;;3.63;1.83;;;;;;;;;;6193198;28;20042;-81
2023/10/10 00:35:35;;;;;;;3.17;1.55;;;;;;;;;;6174244;28;20083;-82
2023/10/10 00:38:36;;;;;;;2.00;1.40;;;;;;;;;;6194665;28;20038;-82
2023/10/10 00:44:49;;;;;;;3.00;1.38;;;;;;;;;;6170328;28;20582;-82
2023/10/10 00:47:53;;;;;;;4.30;1.50;;;;;;;;;;6185084;28;20035;-82
2023/10/10 00:50:53;;;;;;;4.18;1.60;;;;;;;;;;6168986;28;20049;-82
2023/10/10 00:54:09;;;;;;;3.67;1.60;;;;;;;;;;6217755;28;20026;-81
2023/10/10 00:57:17;;;;;;;2.22;1.50;;;;;;;;;;6204515;28;20026;-82
2023/10/10 01:00:19;;;;;;;3.20;1.48;;;;;;;;;;6186127;28;20018;-82
2023/10/10 01:03:20;;;;;;;2.70;1.55;;;;;;;;;;6196910;28;20504;-82
2023/10/10 01:06:24;;;;;;;3.55;1.77;;;;;;;;;;6208956;28;20018;-82
2023/10/10 01:09:33;;;;;;;3.03;1.73;;;;;;;;;;6193754;28;20022;-81
2023/10/10 01:12:35;;;;;;;3.25;1.60;;;;;;;;;;6195092;28;20026;-82
2023/10/10 01:15:36;;;;;;;3.05;1.50;;;;;;;;;;6180143;28;20118;-77
2023/10/10 01:18:51;;;;;;;2.90;1.30;;;;;;;;;;6183998;28;20019;-78
2023/10/10 01:21:57;;;;;;;3.95;1.58;;;;;;;;;;6196382;28;20046;-78
2023/10/10 01:24:58;;;;;;;2.42;1.27;;;;;;;;;;6199710;28;20026;-78
2023/10/10 01:28:02;;;;;;;4.18;1.33;;;;;;;;;;6179306;28;20047;-78
2023/10/10 01:31:05;;;;;;;2.72;1.33;;;;;;;;;;6181122;28;20034;-78
2023/10/10 01:34:09;;;;;;;3.13;1.52;;;;;;;;;;6180002;28;20029;-78
2023/10/10 01:37:35;;;;;;;4.03;1.50;;;;;;;;;;6197130;28;20671;-79
2023/10/10 01:40:37;;;;;;;4.55;1.50;;;;;;;;;;6172623;28;20050;-78
2023/10/10 01:43:37;;;;;;;4.10;1.45;;;;;;;;;;6194877;28;20034;-78
2023/10/10 01:46:40;;;;;;;2.77;1.70;;;;;;;;;;6200020;28;20110;-78
2023/10/10 01:49:40;;;;;;;4.03;1.40;;;;;;;;;;6194235;28;20022;-77
2023/10/10 01:52:46;;;;;;;2.93;1.60;;;;;;;;;;6213568;28;20033;-78
2023/10/10 01:55:47;;;;;;;2.75;1.67;;;;;;;;;;6203636;28;20022;-78
2023/10/10 01:58:53;;;;;;;2.70;1.35;;;;;;;;;;6206426;28;20407;-77
2023/10/10 02:01:55;;;;;;;2.50;1.52;;;;;;;;;;6217946;28;20026;-78
2023/10/10 02:04:59;;;;;;;2.33;1.35;;;;;;;;;;6196175;28;20034;-77
2023/10/10 02:08:00;;;;;;;3.78;1.52;;;;;;;;;;6173879;28;20101;-78
2023/10/10 02:11:02;;;;;;;7.43;1.27;;;;;;;;;;6205201;28;20038;-77
2023/10/10 02:14:02;;;;;;;2.40;1.27;;;;;;;;;;6205458;28;20071;-78
2023/10/10 02:17:08;;;;;;;1.97;1.20;;;;;;;;;;6174191;28;20031;-77
2023/10/10 02:23:35;;;;;;;2.97;1.50;;;;;;;;;;6205866;28;20053;-79
2023/10/10 02:26:35;;;;;;;3.08;1.38;;;;;;;;;;6172360;28;20031;-77
2023/10/10 02:29:36;;;;;;;3.63;1.50;;;;;;;;;;6174176;28;20097;-77
2023/10/10 02:32:36;;;;;;;3.27;1.47;;;;;;;;;;6187674;28;20476;-78
2023/10/10 02:35:47;;;;;;;3.05;1.60;;;;;;;;;;6172457;28;20045;-78
2023/10/10 02:39:01;;;;;;;2.40;1.40;;;;;;;;;;6177869;28;20109;-78
2023/10/10 02:42:03;;;;;;;2.85;1.50;;;;;;;;;;6179972;28;20042;-78
2023/10/10 02:45:04;;;;;;;2.15;1.50;;;;;;;;;;6178849;28;20022;-78
2023/10/10 02:48:07;;;;;;;3.33;1.40;;;;;;;;;;6175911;28;20088;-79
2023/10/10 02:51:08;;;;;;;2.60;1.40;;;;;;;;;;6176085;28;20031;-78
2023/10/10 02:54:20;;;;;;;3.33;1.50;;;;;;;;;;6174946;28;20050;-78
2023/10/10 02:57:27;;;;;;;3.90;1.58;;;;;;;;;;6157189;28;20294;-77
2023/10/10 03:03:27;;;;;;;2.10;1.37;;;;;;;;;;6177178;28;20386;-78
2023/10/10 03:06:28;;;;;;;3.03;1.73;;;;;;;;;;6172977;28;20476;-78
2023/10/10 03:09:38;;;;;;;2.53;1.42;;;;;;;;;;6175061;28;20015;-77
2023/10/10 03:12:40;;;;;;;2.45;1.20;;;;;;;;;;6178132;28;20027;-78
2023/10/10 03:15:51;;;;;;;2.38;1.38;;;;;;;;;;6177001;28;20543;-78
2023/10/10 03:25:28;;;;;;;2.22;1.25;;;;;;;;;;6176025;28;20042;-78
2023/10/10 03:31:35;;;;;;;2.13;1.30;;;;;;;;;;6173756;28;20519;-77
2023/10/10 03:34:55;;;;;;;2.38;1.52;;;;;;;;;;6174137;28;20079;-78
2023/10/10 03:38:04;;;;;;;3.65;1.58;;;;;;;;;;6173889;28;20030;-78
2023/10/10 05:23:50;;;;;;;2.78;1.27;;;;;;;;;;6178114;28;20034;-77
2023/10/10 05:26:54;;;;;;;2.63;1.43;;;;;;;;;;6180783;28;20138;-77
2023/10/10 05:29:54;;;;;;;1.67;1.23;;;;;;;;;;6177225;28;20034;-77
2023/10/10 05:33:12;;;;;;;1.93;1.47;;;;;;;;;;6179357;28;20023;-77
2023/10/10 05:36:13;;;;;;;2.47;1.02;;;;;;;;;;6174296;28;20451;-77
2023/10/10 05:39:23;;;;;;;1.67;1.23;;;;;;;;;;6196853;28;20030;-77
2023/10/10 05:42:26;;;;;;;4.18;1.30;;;;;;;;;;6198627;28;20481;-77
2023/10/10 05:45:26;;;;;;;3.80;1.58;;;;;;;;;;6196089;28;20026;-77
2023/10/10 05:48:27;;;;;;;3.90;1.50;;;;;;;;;;6193045;28;20025;-78
2023/10/10 05:51:27;;;;;;;2.67;1.43;;;;;;;;;;6205103;28;20036;-77
2023/10/10 05:54:28;;;;;;;2.47;1.60;;;;;;;;;;6224442;28;20100;-77
2023/10/10 05:57:28;;;;;;;4.57;1.43;;;;;;;;;;6197821;28;20061;-77
2023/10/10 06:00:29;;;;;;;2.60;1.30;;;;;;;;;;6197552;28;20027;-77
2023/10/10 06:03:31;;;;;;;4.35;1.70;;;;;;;;;;6197988;28;20395;-78
2023/10/10 06:06:32;;;;;;;2.35;1.48;;;;;;;;;;6197882;28;20058;-81
2023/10/10 06:09:34;;;;;;;3.63;1.80;;;;;;;;;;6191580;28;20041;-81
2023/10/10 06:12:36;;;;;;;3.35;1.50;;;;;;;;;;6179402;28;20030;-81
2023/10/10 06:15:36;;;;;;;5.35;1.75;;;;;;;;;;6197358;28;20048;-81
2023/10/10 06:18:37;;;;;;;2.93;1.40;;;;;;;;;;6191401;28;20164;-81
2023/10/10 06:21:40;;;;;;;3.57;1.50;;;;;;;;;;6192630;28;20309;-81
2023/10/10 06:24:41;;;;;;;3.42;1.58;;;;;;;;;;6194834;28;20390;-81
2023/10/10 06:27:45;;;;;;;3.47;1.60;;;;;;;;;;6196707;28;20027;-81
2023/10/10 06:30:45;;;;;;;2.38;1.27;;;;;;;;;;6181510;28;20069;-81
2023/10/10 06:33:51;;;;;;;2.60;1.70;;;;;;;;;;6177118;28;20497;-81
2023/10/10 06:36:54;;;;;;;2.58;1.48;;;;;;;;;;6175151;28;20031;-81
2023/10/10 06:39:54;;;;;;;3.92;1.67;;;;;;;;;;6173138;28;20037;-81
2023/10/10 06:42:56;;;;;;;3.13;1.60;;;;;;;;;;6174340;28;20030;-81
2023/10/10 06:45:57;;;;;;;2.35;1.45;;;;;;;;;;6176096;28;20080;-81
2023/10/10 06:49:06;;;;;;;2.73;1.80;;;;;;;;;;6159881;28;20031;-81
2023/10/10 06:52:06;;;;;;;3.45;1.40;;;;;;;;;;6176548;28;20027;-81
2023/10/10 06:55:21;;;;;;;3.17;1.47;;;;;;;;;;6178630;28;20057;-81
2023/10/10 06:58:21;;;;;;;3.70;1.33;;;;;;;;;;6184172;28;20085;-81
2023/10/10 07:01:21;;;;;;;3.00;1.40;;;;;;;;;;6179090;28;20084;-84
2023/10/10 07:04:21;;;;;;;3.60;1.60;;;;;;;;;;6179585;28;20098;-84
2023/10/10 07:07:26;;;;;;;2.27;1.33;;;;;;;;;;6172390;28;20428;-84
2023/10/10 07:10:32;;;;;;;2.33;1.35;;;;;;;;;;6179724;28;20042;-84
2023/10/10 07:13:35;;;;;;;2.55;1.35;;;;;;;;;;6171755;28;20027;-83
2023/10/10 07:16:39;;;;;;;2.58;1.30;;;;;;;;;;6173019;28;20026;-80
2023/10/10 07:23:00;;;;;;;4.30;1.50;;;;;;;;;;6172195;28;20063;-80
2023/10/10 07:26:01;;;;;;;1.90;1.48;;;;;;;;;;6175584;28;20027;-84
2023/10/10 07:29:26;;;;;;;3.42;1.10;;;;;;;;;;6176259;28;20114;-84
2023/10/10 07:32:28;;;;;;;2.92;1.52;;;;;;;;;;6189681;28;20578;-79
2023/10/10 07:35:28;;;;;;;2.30;1.40;;;;;;;;;;6176190;28;20035;-79
2023/10/10 07:38:28;;;;;;;4.30;1.48;;;;;;;;;;6173722;28;20057;-79
2023/10/10 07:41:30;;;;;;;2.30;1.27;;;;;;;;;;6174134;28;20037;-78
2023/10/10 07:44:30;;;;;;;3.03;1.77;;;;;;;;;;6176885;28;20024;-82
2023/10/10 07:47:32;;;;;;;2.43;1.27;;;;;;;;;;6159270;28;20037;-78
2023/10/10 07:50:35;;;;;;;2.67;1.60;;;;;;;;;;6175812;28;20471;-66
2023/10/10 07:53:44;;;;;;;2.38;1.42;;;;;;;;;;6174632;28;20026;-81
2023/10/10 07:56:47;;;;;;;1.83;1.35;;;;;;;;;;6172719;28;20027;-81
2023/10/10 07:59:48;;;;;;;2.78;1.48;;;;;;;;;;6180323;28;20452;-80
2023/10/10 08:02:53;;;;;;;3.65;1.30;;;;;;;;;;6157525;28;20043;-81
2023/10/10 08:05:53;;;;;;;1.33;1.10;;;;;;;;;;6179397;28;20505;-80
2023/10/10 08:09:29;;;;;;;1.70;1.30;;;;;;;;;;6168341;28;20026;-80
2023/10/10 08:12:23;;;;;;;2.15;1.00;;;;;;;;;;6176160;28;20054;-79
2023/10/10 08:15:27;;;;;;;1.92;1.20;;;;;;;;;;6160788;28;20490;-79
2023/10/10 08:19:10;;;;;;;2.13;1.25;;;;;;;;;;6171348;28;20030;-81
2023/10/10 08:21:53;;;;;;;1.77;1.15;;;;;;;;;;6181147;28;20526;-79
2023/10/10 08:24:53;;;;;;;2.13;1.20;;;;;;;;;;6193364;28;20031;-83
2023/10/10 08:27:55;;;;;;;1.90;1.27;;;;;;;;;;6163440;28;20033;-81
2023/10/10 08:30:55;;;;;;;2.75;1.58;;;;;;;;;;6176596;28;20062;-85
2023/10/10 08:33:58;;;;;;;2.20;1.67;;;;;;;;;;6182982;28;20034;-82
2023/10/10 08:37:03;;;;;;;1.85;1.50;;;;;;;;;;6177280;28;20113;-82
2023/10/10 08:40:19;;;;;;;2.53;1.58;;;;;;;;;;6178254;28;20030;-85
2023/10/10 08:43:21;;;;;;;2.47;1.55;;;;;;;;;;6177143;28;20364;-81
2023/10/10 08:46:24;;;;;;;2.28;1.40;;;;;;;;;;6169421;28;20314;-83
2023/10/10 08:49:26;;;;;;;5.28;1.60;;;;;;;;;;6177149;28;20031;-83
2023/10/10 08:52:27;;;;;;;2.15;1.52;;;;;;;;;;6178796;28;20037;-82
2023/10/10 08:55:28;;;;;;;2.60;1.30;;;;;;;;;;6176019;28;20760;-82
2023/10/10 08:58:31;;;;;;;1.83;1.23;;;;;;;;;;6185346;28;20156;-82
2023/10/10 09:01:33;;;;;;;2.97;1.48;;;;;;;;;;6186193;28;20780;-83
2023/10/10 09:04:33;;;;;;;4.15;1.50;;;;;;;;;;6185077;28;20053;-84
2023/10/10 09:07:34;;;;;;;2.35;1.50;;;;;;;;;;6177625;28;20121;-84
2023/10/10 09:10:39;;;;;;;2.13;1.33;;;;;;;;;;6175195;28;20039;-84
2023/10/10 09:13:51;;;;;;;2.92;1.45;;;;;;;;;;6177390;28;20056;-83
2023/10/10 09:16:51;;;;;;;3.22;1.58;;;;;;;;;;6175997;28;20038;-83
2023/10/10 09:19:51;;;;;;;3.53;1.70;;;;;;;;;;6185666;28;20029;-82
2023/10/10 09:22:52;;;;;;;3.93;2.00;;;;;;;;;;6182041;28;20502;-83
2023/10/10 09:26:09;;;;;;;3.00;1.92;;;;;;;;;;6198497;28;20034;-83
2023/10/10 09:29:15;;;;;;;2.97;1.58;;;;;;;;;;6173717;28;20027;-83
2023/10/10 09:32:17;;;;;;;2.75;1.67;;;;;;;;;;5828495;27;10000408;-83
2023/10/10 09:35:20;;;;;;;3.28;1.70;;;;;;;;;;6175989;28;20023;-81
2023/10/10 09:38:21;;;;;;;3.00;1.60;;;;;;;;;;6238892;28;20037;-81
2023/10/10 09:41:37;;;;;;;5.30;1.73;;;;;;;;;;6255091;28;20028;-82
2023/10/10 09:48:06;;;;;;;3.72;1.83;;;;;;;;;;6178166;28;20457;-81
2023/10/10 09:51:31;;;;;;;3.95;2.03;;;;;;;;;;6177494;28;20476;-82
2023/10/10 09:54:35;;;;;;;3.45;1.52;;;;;;;;;;6174655;28;20031;-82
2023/10/10 09:57:44;;;;;;;3.63;1.88;;;;;;;;;;6171942;28;20083;-81
2023/10/10 10:03:55;;;;;;;3.63;1.70;;;;;;;;;;6175772;28;20122;-81
2023/10/10 10:07:21;;;;;;;3.17;2.07;;;;;;;;;;6171711;28;20026;-79
2023/10/10 10:10:48;;;;;;;3.90;2.38;;;;;;;;;;6157488;28;20075;-80
2023/10/10 10:13:54;;;;;;;3.80;2.22;;;;;;;;;;6174090;28;20387;-81
2023/10/10 10:17:12;;;;;;;4.10;1.85;;;;;;;;;;6176368;28;20062;-82
2023/10/10 10:20:21;;;;;;;5.60;1.92;;;;;;;;;;6165044;28;20077;-80
2023/10/10 10:23:26;;;;;;;4.88;1.83;;;;;;;;;;6175558;28;20115;-80
2023/10/10 10:26:34;;;;;;;3.78;2.15;;;;;;;;;;6174668;28;20029;-79
2023/10/10 10:29:37;;;;;;;7.38;2.05;;;;;;;;;;6173717;28;20030;-79
2023/10/10 10:32:39;;;;;;;3.78;1.98;;;;;;;;;;6172633;28;20186;-82
2023/10/10 10:35:56;;;;;;;5.05;2.17;;;;;;;;;;6177489;28;20442;-80
2023/10/10 10:39:19;;;;;;;5.15;1.90;;;;;;;;;;6156268;28;20059;-75
2023/10/10 10:42:22;;;;;;;4.85;2.03;;;;;;;;;;6174727;28;20422;-76
2023/10/10 10:45:51;;;;;;;3.65;1.70;;;;;;;;;;6175884;28;20502;-74
2023/10/10 10:48:55;;;;;;;4.03;1.85;;;;;;;;;;6171342;28;20081;-71
2023/10/10 10:52:14;;;;;;;5.63;1.88;;;;;;;;;;6175802;28;20031;-72
2023/10/10 10:55:29;;;;;;;2.53;1.73;;;;;;;;;;6169593;28;20407;-72
2023/10/10 10:58:29;;;;;;;4.80;1.88;;;;;;;;;;6171071;28;20034;-72
2023/10/10 11:01:30;;;;;;;3.03;2.00;;;;;;;;;;6173873;28;20491;-72
2023/10/10 11:07:41;;;;;;;;;;;;;;;;;;6171361;28;20046;-72
2023/10/10 11:10:46;;;;;;;5.07;1.55;;;;;;;;;;6177587;28;19918;-71
2023/10/10 11:13:48;;;;;;;4.45;1.88;;;;;;;;;;6172568;28;20507;-72
2023/10/10 11:16:56;;;;;;;2.78;1.68;;;;;;;;;;5827436;28;10001147;-72
2023/10/10 11:19:57;;;;;;;3.20;2.00;;;;;;;;;;6174669;28;20031;-71
2023/10/10 11:23:11;;;;;;;;;;;;;;;;;;6175813;28;20093;-73
2023/10/10 11:26:14;;;;;;;3.00;1.55;;;;;;;;;;6172811;28;20454;-72
2023/10/10 11:29:29;;;;;;;4.28;1.52;;;;;;;;;;6171521;28;20054;-71
2023/10/10 11:32:36;;;;;;;5.95;2.03;;;;;;;;;;6175303;28;20045;-70
2023/10/10 11:35:37;;;;;;;4.05;1.92;;;;;;;;;;6182384;28;20483;-72
2023/10/10 11:38:39;;;;;;;;;;;;;;;;;;6175163;28;20037;-71
2023/10/10 11:41:39;;;;;;;4.70;1.85;;;;;;;;;;6181598;28;19910;-72
2023/10/10 11:44:41;;;;;;;;;;;;;;;;;;6177928;28;20029;-71
2023/10/10 11:47:44;;;;;;;2.65;1.50;;;;;;;;;;6190501;28;20027;-71
2023/10/10 11:50:49;;;;;;;3.00;1.75;;;;;;;;;;6194142;28;20041;-71
2023/10/10 11:53:53;;;;;;;5.03;1.75;;;;;;;;;;6198255;28;20103;-74
2023/10/10 11:56:54;;;;;;;5.07;2.10;;;;;;;;;;6190380;28;20023;-75
2023/10/10 11:59:55;;;;;;;5.63;2.90;;;;;;;;;;6186602;28;20030;-76
2023/10/10 12:02:57;;;;;;;4.22;2.75;;;;;;;;;;6198138;28;20026;-76
2023/10/10 12:05:59;;;;;;;5.15;2.53;;;;;;;;;;6182411;28;20117;-76
2023/10/10 12:09:01;;;;;;;4.82;2.22;;;;;;;;;;6180571;28;20034;-76
2023/10/10 12:12:04;;;;;;;3.38;1.98;;;;;;;;;;6191665;28;20061;-76
2023/10/10 12:15:05;;;;;;;6.00;2.20;;;;;;;;;;6193238;28;20026;-76
2023/10/10 12:18:09;;;;;;;5.65;2.20;;;;;;;;;;6195984;28;20015;-76
2023/10/10 12:21:10;;;;;;;3.45;2.03;;;;;;;;;;6194050;28;20054;-76
2023/10/10 12:24:10;;;;;;;3.03;1.95;;;;;;;;;;6182372;28;20034;-76
2023/10/10 12:27:10;;;;;;;;;;;;;;;;;;6173644;28;20036;-76
2023/10/10 12:30:13;;;;;;;4.67;1.83;;;;;;;;;;6174387;28;19915;-81
2023/10/10 12:33:15;;;;;;;5.22;2.15;;;;;;;;;;6180082;28;20064;-84
2023/10/10 12:36:16;;;;;;;3.83;1.80;;;;;;;;;;6175417;28;20039;-83
2023/10/10 12:39:19;;;;;;;5.07;2.35;;;;;;;;;;6161806;28;20463;-83
2023/10/10 12:42:19;;;;;;;4.53;1.77;;;;;;;;;;6180690;28;20033;-82
2023/10/10 12:45:20;;;;;;;3.60;2.13;;;;;;;;;;6173568;28;20018;-80
2023/10/10 12:48:20;;;;;;;3.70;1.87;;;;;;;;;;6176357;28;20379;-80
2023/10/10 12:51:23;;;;;;;;;;;;;;;;;;6173412;28;20650;-80
2023/10/10 12:54:34;;;;;;;4.10;1.75;;;;;;;;;;6177570;28;19906;-81
2023/10/10 12:57:34;;;;;;;;;;;;;;;;;;6174631;28;20071;-81
2023/10/10 13:00:35;;;;;;;3.10;1.55;;;;;;;;;;6172431;28;19910;-79
2023/10/10 13:03:36;;;;;;;3.33;1.77;;;;;;;;;;6156966;28;20022;-79
2023/10/10 13:06:36;;;;;;;3.43;1.70;;;;;;;;;;6159826;28;20065;-85
2023/10/10 13:09:42;;;;;;;2.40;1.85;;;;;;;;;;6175230;28;20031;-85
2023/10/10 13:12:51;;;;;;;2.28;1.63;;;;;;;;;;6172222;28;20038;-85
2023/10/10 13:16:07;;;;;;;3.88;1.77;;;;;;;;;;6182746;28;20038;-84
2023/10/10 13:19:09;;;;;;;3.03;1.77;;;;;;;;;;5834364;27;9999973;-84
2023/10/10 13:22:20;;;;;;;3.95;1.83;;;;;;;;;;6174663;28;20497;-84
2023/10/10 13:25:21;;;;;;;;;;;;;;;;;;6179736;28;20117;-85
2023/10/10 13:28:22;;;;;;;6.35;4.45;;;;;;;;;;6179193;28;20004;-85
2023/10/10 13:31:24;;;;;;;4.45;3.20;;;;;;;;;;6183228;28;20403;-84
2023/10/10 13:34:24;;;;;;;4.22;2.42;;;;;;;;;;6174063;28;20450;-85
2023/10/10 13:37:24;;;;;;;4.00;1.90;;;;;;;;;;6158068;28;20030;-84
2023/10/10 13:40:24;;;;;;;3.50;2.03;;;;;;;;;;6189050;28;20027;-84
2023/10/10 13:43:26;;;;;;;4.17;1.80;;;;;;;;;;6185282;28;20058;-84
2023/10/10 13:46:27;;;;;;;3.97;1.98;;;;;;;;;;6222855;28;20037;-85
2023/10/10 13:49:27;;;;;;;2.22;1.58;;;;;;;;;;6189432;28;20015;-84
2023/10/10 13:52:27;;;;;;;4.07;1.90;;;;;;;;;;6179892;28;20422;-84
2023/10/10 13:55:31;;;;;;;4.30;2.20;;;;;;;;;;6177473;28;20031;-90
2023/10/10 13:58:31;;;;;;;3.78;1.70;;;;;;;;;;6183027;28;20284;-90
2023/10/10 14:01:39;;;;;;;2.50;1.42;;;;;;;;;;6180217;28;20029;-84
2023/10/10 14:04:47;;;;;;;3.85;1.83;;;;;;;;;;6199007;28;20019;-84
2023/10/10 14:07:47;;;;;;;4.88;1.67;;;;;;;;;;6189684;28;20023;-82
2023/10/10 14:10:50;;;;;;;5.53;1.83;;;;;;;;;;6179324;28;20444;-83
2023/10/10 14:13:53;;;;;;;3.28;2.00;;;;;;;;;;6178406;28;20050;-82
2023/10/10 14:16:53;;;;;;;3.97;2.10;;;;;;;;;;6175891;28;20105;-82
2023/10/10 14:19:54;;;;;;;4.63;2.00;;;;;;;;;;6177509;28;20030;-82
2023/10/10 14:22:54;;;;;;;4.83;2.07;;;;;;;;;;6174879;28;20105;-82
2023/10/10 14:26:12;;;;;;;6.23;4.40;;;;;;;;;;6174130;28;20498;-82
2023/10/10 14:29:13;;;;;;;6.50;3.45;;;;;;;;;;6172954;28;20110;-81
2023/10/10 14:32:14;;;;;;;3.92;2.63;;;;;;;;;;6174622;28;20027;-82
2023/10/10 14:35:15;;;;;;;2.88;2.20;;;;;;;;;;6186862;28;20121;-82
2023/10/10 14:38:15;;;;;;;3.08;2.13;;;;;;;;;;6188650;28;20550;-82
2023/10/10 14:41:17;;;;;;;3.92;2.05;;;;;;;;;;6174035;28;20030;-82
2023/10/10 14:44:17;;;;;;;3.40;2.20;;;;;;;;;;6171007;28;20042;-82
2023/10/10 14:47:20;;;;;;;2.30;1.73;;;;;;;;;;6178421;28;20471;-82
2023/10/10 14:50:24;;;;;;;3.42;1.85;;;;;;;;;;5828907;28;9999670;-82
2023/10/10 14:53:24;;;;;;;4.50;1.80;;;;;;;;;;6169300;28;20065;-81
2023/10/10 14:56:33;;;;;;;3.45;1.80;;;;;;;;;;6158774;28;20060;-82
2023/10/10 14:59:35;;;;;;;2.85;2.15;;;;;;;;;;6174308;28;20027;-82
2023/10/10 15:02:36;;;;;;;3.67;1.90;;;;;;;;;;6164460;28;20037;-83
2023/10/10 15:05:36;;;;;;;4.20;1.90;;;;;;;;;;6162877;28;20030;-83
2023/10/10 15:08:36;;;;;;;3.08;1.80;;;;;;;;;;5831377;28;9999932;-82
2023/10/10 15:11:41;;;;;;;3.57;2.10;;;;;;;;;;6174026;28;20062;-83
2023/10/10 15:14:42;;;;;;;4.68;3.30;;;;;;;;;;6189894;28;20022;-83
2023/10/10 15:17:43;;;;;;;7.00;3.83;;;;;;;;;;6176822;28;20122;-81
2023/10/10 15:20:48;;;;;;;4.85;2.78;;;;;;;;;;6174293;28;20050;-81
2023/10/10 15:23:48;;;;;;;4.80;2.60;;;;;;;;;;6128010;28;20038;-79
2023/10/10 15:26:51;;;;;;;3.20;2.30;;;;;;;;;;6153894;28;20487;-79
2023/10/10 15:29:51;;;;;;;4.32;2.38;;;;;;;;;;6156258;28;20292;-79
2023/10/10 15:32:56;;;;;;;3.80;2.30;;;;;;;;;;6157952;28;20121;-79
2023/10/10 15:35:57;;;;;;;3.92;2.10;;;;;;;;;;6158192;28;20030;-80
2023/10/10 15:39:03;;;;;;;2.90;2.08;;;;;;;;;;6159536;28;20026;-78
2023/10/10 15:42:04;;;;;;;5.25;1.95;;;;;;;;;;6142304;28;20038;-78
2023/10/10 15:45:05;;;;;;;3.60;2.33;;;;;;;;;;6155461;28;20027;-79
2023/10/10 15:48:06;;;;;;;3.58;2.00;;;;;;;;;;6140783;28;20028;-78
2023/10/10 15:51:08;;;;;;;2.63;2.08;;;;;;;;;;6137062;28;20077;-79
2023/10/10 15:54:09;;;;;;;4.32;2.10;;;;;;;;;;6156879;28;20027;-78
2023/10/10 15:57:09;;;;;;;3.15;1.85;;;;;;;;;;6158049;28;20033;-80
2023/10/10 16:00:10;;;;;;;;;;;;;;;;;;6158663;28;20372;-77
2023/10/10 16:03:12;;;;;;;5.07;2.23;;;;;;;;;;6158942;28;19924;-78
2023/10/10 16:06:13;;;;;;;5.38;2.20;;;;;;;;;;6157521;28;20748;-78
2023/10/10 16:09:20;;;;;;;5.30;2.33;;;;;;;;;;6156198;28;20121;-78
2023/10/10 16:12:20;;;;;;;6.13;2.80;;;;;;;;;;6174595;28;20543;-78
2023/10/10 16:15:22;;;;;;;3.87;2.30;;;;;;;;;;6157257;28;20026;-78
2023/10/10 16:18:22;;;;;;;4.70;2.47;;;;;;;;;;6156998;28;20351;-78
2023/10/10 16:21:25;;;;;;;4.40;2.15;;;;;;;;;;6176754;28;20050;-78
2023/10/10 16:24:27;;;;;;;5.75;2.83;;;;;;;;;;6173782;28;20031;-77
2023/10/10 16:30:57;;;;;;;6.97;4.47;;;;;;;;;;6177624;28;21190;-78
2023/10/10 16:33:57;;;;;;;4.87;3.93;;;;;;;;;;6175954;28;20390;-79
2023/10/10 16:36:58;;;;;;;5.47;3.80;;;;;;;;;;6172201;28;20050;-78
2023/10/10 16:39:58;;;;;;;4.30;3.22;;;;;;;;;;6174792;28;20117;-78
2023/10/10 16:42:58;;;;;;;4.18;3.03;;;;;;;;;;6177839;28;20019;-79
2023/10/10 16:46:00;;;;;;;6.07;3.00;;;;;;;;;;6178850;28;20076;-79
2023/10/10 16:49:00;;;;;;;6.07;3.13;;;;;;;;;;6180114;28;20288;-79
2023/10/10 16:52:01;;;;;;;3.70;3.07;;;;;;;;;;6175495;28;20117;-80
2023/10/10 16:55:09;;;;;;;;;;;;;;;;;;6178736;28;20712;-81
2023/10/10 16:58:14;;;;;;;3.95;2.17;;;;;;;;;;6178719;28;19914;-80
2023/10/10 17:01:17;;;;;;;5.38;2.67;;;;;;;;;;6171960;28;20027;-80
2023/10/10 17:04:18;;;;;;;5.85;2.67;;;;;;;;;;6186060;28;20077;-80
2023/10/10 17:07:19;;;;;;;6.79;2.50;;;;;;;;;;5852101;27;10000759;-80
2023/10/10 17:10:19;;;;;;;;;;;;;;;;;;6174292;28;20022;-80
2023/10/10 17:13:19;;;;;;;3.17;1.90;;;;;;;;;;6179875;28;19918;-80
2023/10/10 17:16:25;;;;;;;;;;;;;;;;;;6176866;28;21451;-80
2023/10/10 17:19:25;;;;;;;6.35;1.90;;;;;;;;;;6177863;28;19910;-80
2023/10/10 17:22:26;;;;;;;;;;;;;;;;;;6176618;28;20058;-80
2023/10/10 17:25:28;;;;;;;3.00;1.90;;;;;;;;;;6176203;28;20180;-80
2023/10/10 17:28:28;;;;;;;3.08;1.85;;;;;;;;;;6174453;28;20455;-80
2023/10/10 17:31:28;;;;;;;;;;;;;;;;;;6172900;28;20030;-80
2023/10/10 17:34:33;;;;;;;3.28;1.60;;;;;;;;;;6177939;28;19945;-80
2023/10/10 17:37:34;;;;;;;3.60;2.33;;;;;;;;;;6179572;28;20030;-80
2023/10/10 17:40:39;;;;;;;8.13;3.65;;;;;;;;;;6176790;28;20022;-80
2023/10/10 17:43:41;;;;;;;3.63;2.85;;;;;;;;;;6171242;28;20052;-80
2023/10/10 17:46:41;;;;;;;4.68;2.80;;;;;;;;;;6170882;28;20035;-80
2023/10/10 17:49:41;;;;;;;;;;;;;;;;;;6188799;28;20443;-81
2023/10/10 17:52:42;;;;;;;3.67;1.65;;;;;;;;;;6182664;28;20353;-80
2023/10/10 17:55:42;;;;;;;;;;;;;;;;;;6175291;28;20113;-80
2023/10/10 17:58:46;;;;;;;3.83;1.93;;;;;;;;;;6180842;28;19948;-80
2023/10/10 18:01:46;;;;;;;3.10;2.08;;;;;;;;;;6172900;28;22579;-80
2023/10/10 18:04:47;;;;;;;4.53;2.43;;;;;;;;;;6172247;28;20019;-80
2023/10/10 18:07:47;;;;;;;;;;;;;;;;;;6174323;28;20281;-80
2023/10/10 18:10:47;;;;;;;3.33;2.10;;;;;;;;;;6171088;28;19922;-80
2023/10/10 18:13:47;;;;;;;;;;;;;;;;;;6177170;28;20047;-80
2023/10/10 18:16:48;;;;;;;3.90;2.40;;;;;;;;;;6174827;28;19914;-80
2023/10/10 18:19:49;;;;;;;4.93;2.77;;;;;;;;;;6173224;28;20155;-80
2023/10/10 18:22:51;;;;;;;3.92;2.78;;;;;;;;;;6171815;28;20050;-80
2023/10/10 18:25:51;;;;;;;3.10;2.28;;;;;;;;;;6175364;28;20039;-81
2023/10/10 18:28:52;;;;;;;7.73;2.57;;;;;;;;;;6180340;28;20030;-80
2023/10/10 18:31:57;;;;;;;5.00;2.17;;;;;;;;;;6173853;28;20411;-80
2023/10/10 18:34:58;;;;;;;4.43;2.35;;;;;;;;;;6180711;28;20081;-79
2023/10/10 18:37:59;;;;;;;4.33;2.13;;;;;;;;;;6208089;28;20564;-80
2023/10/10 18:40:59;;;;;;;2.92;1.92;;;;;;;;;;6202444;28;20023;-79
2023/10/10 18:44:01;;;;;;;7.15;2.08;;;;;;;;;;6213687;28;20030;-80
2023/10/10 18:47:02;;;;;;;4.25;2.22;;;;;;;;;;6178156;28;20065;-79
2023/10/10 18:50:05;;;;;;;3.35;1.92;;;;;;;;;;6173004;28;20408;-80
2023/10/10 18:53:05;;;;;;;3.50;2.05;;;;;;;;;;6172177;28;20042;-80
2023/10/10 18:56:06;;;;;;;4.37;2.17;;;;;;;;;;6172915;28;20026;-79
2023/10/10 18:59:07;;;;;;;3.10;2.40;;;;;;;;;;6174266;28;20635;-84
2023/10/10 19:02:07;;;;;;;3.20;2.30;;;;;;;;;;6173307;28;20084;-79
2023/10/10 19:05:08;;;;;;;5.38;2.53;;;;;;;;;;6172446;28;20027;-78
2023/10/10 19:08:08;;;;;;;;;;;;;;;;;;6155784;28;20250;-78
2023/10/10 19:11:10;;;;;;;2.20;1.77;;;;;;;;;;6174833;28;20286;-79
2023/10/10 19:14:12;;;;;;;5.75;2.05;;;;;;;;;;6173421;28;20030;-79
2023/10/10 19:17:14;;;;;;;3.40;2.30;;;;;;;;;;6169078;28;20031;-79
2023/10/10 19:20:21;;;;;;;4.18;2.53;;;;;;;;;;6173304;28;20031;-79
2023/10/10 19:23:22;;;;;;;3.55;2.47;;;;;;;;;;6158751;28;20145;-79
2023/10/10 19:26:22;;;;;;;7.93;4.63;;;;;;;;;;6181197;28;20034;-79
2023/10/10 19:29:23;;;;;;;3.95;2.90;;;;;;;;;;6171948;28;20038;-78
2023/10/10 19:32:23;;;;;;;6.50;2.88;;;;;;;;;;6171336;28;22102;-79
2023/10/10 19:35:27;;;;;;;3.23;2.30;;;;;;;;;;6159031;28;20068;-79
2023/10/10 19:38:28;;;;;;;4.53;2.53;;;;;;;;;;6173623;28;20326;-79
2023/10/10 19:41:29;;;;;;;3.77;2.40;;;;;;;;;;6176539;28;20041;-79
2023/10/10 19:44:30;;;;;;;5.88;2.35;;;;;;;;;;6186984;28;20023;-79
2023/10/10 19:47:30;;;;;;;3.13;2.40;;;;;;;;;;6199603;28;20037;-79
2023/10/10 19:50:30;;;;;;;;;;;;;;;;;;6161396;28;20038;-79
2023/10/10 19:53:31;;;;;;;2.40;1.77;;;;;;;;;;6183719;28;19913;-79
2023/10/10 19:56:31;;;;;;;4.28;1.85;;;;;;;;;;6217911;28;20041;-79
2023/10/10 19:59:32;;;;;;;2.63;2.03;;;;;;;;;;6210556;28;20030;-79
2023/10/10 20:02:33;;;;;;;3.60;2.40;;;;;;;;;;6191489;28;20031;-79
2023/10/10 20:05:36;;;;;;;3.65;2.72;;;;;;;;;;6173093;28;20398;-78
2023/10/10 20:08:36;;;;;;;5.28;2.78;;;;;;;;;;6189574;28;20034;-78
2023/10/10 20:11:39;;;;;;;3.60;2.40;;;;;;;;;;6183055;28;20077;-79
2023/10/10 20:14:40;;;;;;;5.20;2.40;;;;;;;;;;6172851;28;20026;-79
2023/10/10 20:17:45;;;;;;;4.82;2.55;;;;;;;;;;6183093;28;20497;-79
2023/10/10 20:20:48;;;;;;;3.35;2.40;;;;;;;;;;6170269;28;20143;-79
2023/10/10 20:23:49;;;;;;;4.82;2.42;;;;;;;;;;6168976;28;20106;-79
2023/10/10 20:26:49;;;;;;;3.78;2.55;;;;;;;;;;6175258;28;20026;-79
2023/10/10 20:29:51;;;;;;;3.73;2.37;;;;;;;;;;6180898;28;20475;-79
2023/10/10 20:32:52;;;;;;;3.63;2.38;;;;;;;;;;6184625;28;20035;-78
2023/10/10 20:35:52;;;;;;;4.20;2.10;;;;;;;;;;6170555;28;20452;-79
2023/10/10 20:38:52;;;;;;;4.33;2.40;;;;;;;;;;6188157;28;20121;-79
2023/10/10 20:41:53;;;;;;;3.53;2.33;;;;;;;;;;6178692;28;20030;-79
2023/10/10 20:44:53;;;;;;;4.53;2.65;;;;;;;;;;6173107;28;20092;-79